Time;durP1;ratioP1;P1;durP2;ratioP2;P2;SDS_P1;SDS_P2;PMS_P1;PMS_P2;Temp;Humidity;BMP_temperature;BMP_pressure;BME280_temperature;BME280_humidity;BME280_pressure;Samples;Min_cycle;Max_cycle;Signal;HPM_P1;HPM_P2
2022/04/27 00:01:22;;;;;;;;;;;;;;;;;;5099935;28;19916;-80
2022/04/27 00:03:48;;;;;;;;;;;;;;;;;;5095606;28;19916;-80
2022/04/27 00:06:14;;;;;;;;;;;;;;;;;;5082699;28;19971;-80
2022/04/27 00:08:39;;;;;;;;;;;;;;;;;;5081230;28;19923;-79
2022/04/27 00:11:05;;;;;;;;;;;;;;;;;;5097506;28;19961;-80
2022/04/27 00:13:30;;;;;;;;;;;;;;;;;;5096180;28;19920;-80
2022/04/27 00:15:56;;;;;;;;;;;;;;;;;;5097432;28;19916;-79
2022/04/27 00:18:21;;;;;;;;;;;;;;;;;;5095870;28;19916;-79
2022/04/27 00:20:46;;;;;;;;;;;;;;;;;;5097596;28;19916;-79
2022/04/27 00:23:11;;;;;;;;;;;;;;;;;;5097407;28;19916;-80
2022/04/27 00:25:37;;;;;;;;;;;;;;;;;;5107293;28;19919;-80
2022/04/27 00:28:03;;;;;;;;;;;;;;;;;;5117446;28;20010;-80
2022/04/27 00:30:29;;;;;;;;;;;;;;;;;;5116105;28;20285;-80
2022/04/27 00:32:54;;;;;;;;;;;;;;;;;;5108383;28;19920;-80
2022/04/27 00:35:19;;;;;;;;;;;;;;;;;;5094524;28;19920;-79
2022/04/27 00:37:44;;;;;;;;;;;;;;;;;;5096525;28;19922;-80
2022/04/27 00:40:10;;;;;;;;;;;;;;;;;;5097595;28;20491;-80
2022/04/27 00:42:36;;;;;;;;;;;;;;;;;;5099176;28;19916;-80
2022/04/27 00:45:03;;;;;;;;;;;;;;;;;;5099226;28;19916;-80
2022/04/27 00:47:30;;;;;;;;;;;;;;;;;;5099452;28;19949;-79
2022/04/27 00:49:57;;;;;;;;;;;;;;;;;;5097895;28;20006;-79
2022/04/27 00:52:23;;;;;;;;;;;;;;;;;;5097403;28;19943;-79
2022/04/27 00:54:50;;;;;;;;;;;;;;;;;;5097216;28;19985;-79
2022/04/27 00:57:16;;;;;;;;;;;;;;;;;;5096416;28;19943;-80
2022/04/27 00:59:41;;;;;;;;;;;;;;;;;;5095495;28;19916;-79
2022/04/27 01:02:06;;;;;;;;;;;;;;;;;;5096905;28;19966;-80
2022/04/27 01:04:35;;;;;;;;;;;;;;;;;;5084555;28;20011;-80
2022/04/27 01:07:01;;;;;;;;;;;;;;;;;;5116497;28;19926;-80
2022/04/27 01:09:28;;;;;;;;;;;;;;;;;;5111554;28;19916;-80
2022/04/27 01:11:53;;;;;;;;;;;;;;;;;;5094276;28;19916;-80
2022/04/27 01:14:19;;;;;;;;;;;;;;;;;;5096223;28;19939;-80
2022/04/27 01:16:54;;;;;;;;;;;;;;;;;;5094199;28;19923;-80
2022/04/27 01:19:21;;;;;;;;;;;;;;;;;;5095808;28;19962;-79
2022/04/27 01:21:47;;;;;;;;;;;;;;;;;;5096652;28;19969;-79
2022/04/27 01:24:12;;;;;;;;;;;;;;;;;;5095887;28;19962;-79
2022/04/27 01:26:38;;;;;;;;;;;;;;;;;;5095387;28;19927;-80
2022/04/27 01:29:04;;;;;;;;;;;;;;;;;;5096471;28;19920;-79
2022/04/27 01:31:30;;;;;;;;;;;;;;;;;;5095971;28;19923;-79
2022/04/27 01:33:56;;;;;;;;;;;;;;;;;;5092254;28;19967;-80
2022/04/27 01:36:23;;;;;;;;;;;;;;;;;;5077118;28;19993;-79
2022/04/27 01:38:49;;;;;;;;;;;;;;;;;;5077281;28;19916;-79
2022/04/27 01:41:15;;;;;;;;;;;;;;;;;;5089378;28;20006;-79
2022/04/27 01:43:40;;;;;;;;;;;;;;;;;;5076477;28;19928;-79
2022/04/27 01:46:06;;;;;;;;;;;;;;;;;;5082090;28;20384;-79
2022/04/27 01:48:32;;;;;;;;;;;;;;;;;;5096249;28;20380;-79
2022/04/27 01:50:57;;;;;;;;;;;;;;;;;;5096178;28;20273;-79
2022/04/27 01:56:08;;;;;;;;;;;;;;;;;;5093110;28;20282;-79
2022/04/27 01:58:41;;;;;;;;;;;;;;;;;;5083638;28;20002;-79
2022/04/27 02:01:11;;;;;;;;;;;;;;;;;;5094706;28;19945;-79
2022/04/27 02:03:37;;;;;;;;;;;;;;;;;;5093997;28;19916;-79
2022/04/27 02:06:02;;;;;;;;;;;;;;;;;;5108461;28;19922;-79
2022/04/27 02:08:28;;;;;;;;;;;;;;;;;;5116301;28;19915;-79
2022/04/27 02:10:54;;;;;;;;;;;;;;;;;;5114651;28;19938;-79
2022/04/27 02:13:20;;;;;;;;;;;;;;;;;;5116516;28;19916;-80
2022/04/27 02:15:45;;;;;;;;;;;;;;;;;;5114364;28;20377;-77
2022/04/27 02:18:24;;;;;;;;;;;;;;;;;;5093271;28;19923;-78
2022/04/27 02:20:49;;;;;;;;;;;;;;;;;;5094701;28;19920;-79
2022/04/27 02:23:19;;;;;;;;;;;;;;;;;;5096004;28;19923;-79
2022/04/27 02:25:45;;;;;;;;;;;;;;;;;;5077843;28;19927;-79
2022/04/27 02:28:11;;;;;;;;;;;;;;;;;;5095044;28;20285;-79
2022/04/27 02:30:36;;;;;;;;;;;;;;;;;;5089903;28;19963;-79
2022/04/27 02:33:02;;;;;;;;;;;;;;;;;;5075674;28;19916;-77
2022/04/27 02:35:28;;;;;;;;;;;;;;;;;;5068583;28;20422;-80
2022/04/27 02:37:53;;;;;;;;;;;;;;;;;;5095713;28;19917;-79
2022/04/27 02:40:19;;;;;;;;;;;;;;;;;;5093866;28;20064;-79
2022/04/27 02:42:44;;;;;;;;;;;;;;;;;;5097532;28;19947;-79
2022/04/27 02:45:12;;;;;;;;;;;;;;;;;;5097304;28;20339;-80
2022/04/27 02:47:37;;;;;;;;;;;;;;;;;;5096352;28;19916;-80
2022/04/27 02:52:54;;;;;;;;;;;;;;;;;;5094490;28;20433;-80
2022/04/27 02:55:32;;;;;;;;;;;;;;;;;;5097402;28;20301;-79
2022/04/27 02:57:58;;;;;;;;;;;;;;;;;;5098968;28;20015;-79
2022/04/27 03:00:25;;;;;;;;;;;;;;;;;;5096156;28;20382;-79
2022/04/27 03:02:51;;;;;;;;;;;;;;;;;;5097902;28;20362;-79
2022/04/27 03:05:19;;;;;;;;;;;;;;;;;;5093053;28;19924;-78
2022/04/27 03:07:45;;;;;;;;;;;;;;;;;;5076829;28;19916;-79
2022/04/27 03:10:10;;;;;;;;;;;;;;;;;;5077556;28;19948;-78
2022/04/27 03:12:36;;;;;;;;;;;;;;;;;;5077589;28;20385;-78
2022/04/27 03:15:03;;;;;;;;;;;;;;;;;;5078507;28;19999;-79
2022/04/27 03:17:28;;;;;;;;;;;;;;;;;;5060638;28;19965;-79
2022/04/27 03:19:55;;;;;;;;;;;;;;;;;;5078537;28;19948;-79
2022/04/27 03:22:20;;;;;;;;;;;;;;;;;;5078749;28;20009;-78
2022/04/27 03:24:45;;;;;;;;;;;;;;;;;;5060280;28;19916;-79
2022/04/27 03:27:21;;;;;;;;;;;;;;;;;;5078965;28;19928;-79
2022/04/27 03:29:47;;;;;;;;;;;;;;;;;;5084648;28;19970;-79
2022/04/27 03:32:13;;;;;;;;;;;;;;;;;;5086859;28;19921;-79
2022/04/27 03:34:44;;;;;;;;;;;;;;;;;;5077665;28;19973;-79
2022/04/27 03:37:11;;;;;;;;;;;;;;;;;;5095362;28;19942;-78
2022/04/27 03:39:36;;;;;;;;;;;;;;;;;;5098675;28;20271;-78
2022/04/27 03:42:01;;;;;;;;;;;;;;;;;;5097890;28;19969;-79
2022/04/27 03:44:31;;;;;;;;;;;;;;;;;;5097349;28;19922;-78
2022/04/27 03:46:57;;;;;;;;;;;;;;;;;;5096688;28;19924;-79
2022/04/27 03:49:22;;;;;;;;;;;;;;;;;;5097759;28;19916;-78
2022/04/27 03:51:48;;;;;;;;;;;;;;;;;;5098859;28;19916;-78
2022/04/27 03:54:16;;;;;;;;;;;;;;;;;;5096959;28;19931;-78
2022/04/27 03:56:42;;;;;;;;;;;;;;;;;;5098041;28;19916;-78
2022/04/27 03:59:09;;;;;;;;;;;;;;;;;;5095670;28;19920;-78
2022/04/27 04:01:35;;;;;;;;;;;;;;;;;;5088464;28;19916;-78
2022/04/27 04:04:04;;;;;;;;;;;;;;;;;;5074752;28;20385;-77
2022/04/27 04:06:30;;;;;;;;;;;;;;;;;;5070280;28;19924;-78
2022/04/27 04:08:55;;;;;;;;;;;;;;;;;;5072124;28;20363;-77
2022/04/27 04:11:22;;;;;;;;;;;;;;;;;;5073050;28;20295;-78
2022/04/27 04:14:16;;;;;;;;;;;;;;;;;;5102881;28;20035;-78
2022/04/27 04:16:48;;;;;;;;;;;;;;;;;;5092776;28;19938;-78
2022/04/27 04:19:39;;;;;;;;;;;;;;;;;;5098837;28;19959;-78
2022/04/27 04:22:30;;;;;;;;;;;;;;;;;;5093910;28;19978;-77
2022/04/27 04:30:34;;;;;;;;;;;;;;;;;;5090068;28;20351;-78
2022/04/27 04:33:18;;;;;;;;;;;;;;;;;;5075846;28;19923;-78
2022/04/27 04:35:49;;;;;;;;;;;;;;;;;;5075992;28;20563;-78
2022/04/27 04:38:14;;;;;;;;;;;;;;;;;;5094661;28;20007;-78
2022/04/27 04:40:39;;;;;;;;;;;;;;;;;;5094995;28;19922;-77
2022/04/27 04:43:05;;;;;;;;;;;;;;;;;;5094730;28;20358;-78
2022/04/27 04:45:31;;;;;;;;;;;;;;;;;;5094918;28;19995;-78
2022/04/27 04:48:04;;;;;;;;;;;;;;;;;;5095138;28;20373;-78
2022/04/27 04:50:48;;;;;;;;;;;;;;;;;;5094644;28;19965;-78
2022/04/27 04:53:32;;;;;;;;;;;;;;;;;;5096056;28;20023;-78
2022/04/27 04:56:15;;;;;;;;;;;;;;;;;;5095478;28;20377;-78
2022/04/27 04:58:56;;;;;;;;;;;;;;;;;;5094723;28;19921;-78
2022/04/27 05:01:44;;;;;;;;;;;;;;;;;;5091841;28;19932;-78
2022/04/27 05:04:26;;;;;;;;;;;;;;;;;;5094141;28;20404;-78
2022/04/27 05:06:59;;;;;;;;;;;;;;;;;;5090604;28;20275;-77
2022/04/27 05:09:44;;;;;;;;;;;;;;;;;;5075835;28;19969;-77
2022/04/27 05:12:28;;;;;;;;;;;;;;;;;;5077250;28;19923;-78
2022/04/27 05:14:56;;;;;;;;;;;;;;;;;;5094686;28;19939;-79
2022/04/27 05:17:36;;;;;;;;;;;;;;;;;;5094129;28;19916;-79
2022/04/27 05:20:11;;;;;;;;;;;;;;;;;;5073413;28;20305;-78
2022/04/27 05:22:55;;;;;;;;;;;;;;;;;;5075077;28;20297;-78
2022/04/27 05:25:55;;;;;;;;;;;;;;;;;;5090661;28;19924;-79
2022/04/27 05:31:57;;;;;;;;;;;;;;;;;;5095663;28;19916;-78
2022/04/27 05:34:41;;;;;;;;;;;;;;;;;;5097233;28;20019;-78
2022/04/27 05:37:23;;;;;;;;;;;;;;;;;;5088408;28;19917;-78
2022/04/27 05:40:27;;;;;;;;;;;;;;;;;;5083294;28;19917;-78
2022/04/27 05:42:58;;;;;;;;;;;;;;;;;;5071931;28;19921;-79
2022/04/27 05:45:56;;;;;;;;;;;;;;;;;;5103304;27;19986;-79
2022/04/27 05:48:36;;;;;;;;;;;;;;;;;;5074651;28;20259;-80
2022/04/27 05:51:20;;;;;;;;;;;;;;;;;;5097861;28;19937;-79
2022/04/27 05:54:08;;;;;;;;;;;;;;;;;;5104544;28;19919;-79
2022/04/27 05:56:52;;;;;;;;;;;;;;;;;;5094744;28;19947;-79
2022/04/27 05:59:42;;;;;;;;;;;;;;;;;;5099051;28;19920;-78
2022/04/27 06:02:26;;;;;;;;;;;;;;;;;;5097124;28;20428;-78
2022/04/27 06:04:51;;;;;;;;;;;;;;;;;;5079590;28;19916;-78
2022/04/27 06:07:17;;;;;;;;;;;;;;;;;;5098041;28;20376;-79
2022/04/27 06:09:43;;;;;;;;;;;;;;;;;;5076950;28;19923;-78
2022/04/27 06:12:14;;;;;;;;;;;;;;;;;;5100036;28;20004;-79
2022/04/27 06:14:42;;;;;;;;;;;;;;;;;;5101939;28;19981;-78
2022/04/27 06:17:29;;;;;;;;;;;;;;;;;;5120119;28;19951;-78
2022/04/27 06:19:55;;;;;;;;;;;;;;;;;;5098349;28;19920;-79
2022/04/27 06:22:21;;;;;;;;;;;;;;;;;;5068628;28;19927;-78
2022/04/27 06:24:47;;;;;;;;;;;;;;;;;;5069972;28;19959;-78
2022/04/27 06:27:34;;;;;;;;;;;;;;;;;;5066229;28;19920;-79
2022/04/27 06:29:59;;;;;;;;;;;;;;;;;;5080247;28;19970;-78
2022/04/27 06:32:25;;;;;;;;;;;;;;;;;;5093491;28;19916;-78
2022/04/27 06:34:57;;;;;;;;;;;;;;;;;;5094554;28;19922;-78
2022/04/27 06:37:22;;;;;;;;;;;;;;;;;;5097231;28;19938;-81
2022/04/27 06:39:49;;;;;;;;;;;;;;;;;;5096962;28;19916;-79
2022/04/27 06:42:15;;;;;;;;;;;;;;;;;;5098420;28;19942;-78
2022/04/27 06:45:01;;;;;;;;;;;;;;;;;;5097820;28;19974;-81
2022/04/27 06:47:45;;;;;;;;;;;;;;;;;;5099957;28;20488;-83
2022/04/27 06:50:30;;;;;;;;;;;;;;;;;;5099500;28;19923;-80
2022/04/27 06:53:14;;;;;;;;;;;;;;;;;;5099391;28;19923;-81
2022/04/27 06:56:03;;;;;;;;;;;;;;;;;;5107385;28;19945;-84
2022/04/27 06:58:53;;;;;;;;;;;;;;;;;;5080829;28;19920;-83
2022/04/27 07:01:26;;;;;;;;;;;;;;;;;;5080288;28;19959;-84
2022/04/27 07:03:55;;;;;;;;;;;;;;;;;;5101269;28;19923;-83
2022/04/27 07:06:21;;;;;;;;;;;;;;;;;;5105847;28;20020;-84
2022/04/27 07:08:47;;;;;;;;;;;;;;;;;;5099766;28;19920;-84
2022/04/27 07:11:13;;;;;;;;;;;;;;;;;;5101391;28;19923;-84
2022/04/27 07:13:39;;;;;;;;;;;;;;;;;;5103851;28;19916;-83
2022/04/27 07:16:05;;;;;;;;;;;;;;;;;;5097011;28;19964;-85
2022/04/27 07:18:30;;;;;;;;;;;;;;;;;;5099032;28;19916;-84
2022/04/27 07:20:56;;;;;;;;;;;;;;;;;;5092241;28;19917;-83
2022/04/27 07:23:22;;;;;;;;;;;;;;;;;;5065631;28;19916;-83
2022/04/27 07:25:47;;;;;;;;;;;;;;;;;;5083593;28;19927;-84
2022/04/27 07:28:12;;;;;;;;;;;;;;;;;;5094036;28;19936;-84
2022/04/27 07:30:38;;;;;;;;;;;;;;;;;;5095751;28;19977;-84
2022/04/27 07:33:04;;;;;;;;;;;;;;;;;;5082383;28;19916;-83
2022/04/27 07:35:29;;;;;;;;;;;;;;;;;;5093564;28;19916;-83
2022/04/27 07:37:55;;;;;;;;;;;;;;;;;;5094131;28;19920;-83
2022/04/27 07:40:20;;;;;;;;;;;;;;;;;;5098707;28;20026;-83
2022/04/27 07:42:48;;;;;;;;;;;;;;;;;;5098679;28;19922;-84
2022/04/27 07:45:13;;;;;;;;;;;;;;;;;;5109261;28;20346;-84
2022/04/27 07:47:39;;;;;;;;;;;;;;;;;;5103782;28;19955;-83
2022/04/27 07:50:06;;;;;;;;;;;;;;;;;;5102442;28;19998;-84
2022/04/27 07:52:31;;;;;;;;;;;;;;;;;;5083869;28;19920;-84
2022/04/27 07:54:56;;;;;;;;;;;;;;;;;;5082908;28;19961;-84
2022/04/27 07:57:21;;;;;;;;;;;;;;;;;;5084509;28;19920;-84
2022/04/27 07:59:47;;;;;;;;;;;;;;;;;;5082575;28;19916;-84
2022/04/27 08:02:12;;;;;;;;;;;;;;;;;;5085311;28;19923;-84
2022/04/27 08:04:37;;;;;;;;;;;;;;;;;;5108581;28;19923;-84
2022/04/27 08:07:03;;;;;;;;;;;;;;;;;;5084701;28;19920;-82
2022/04/27 08:09:28;;;;;;;;;;;;;;;;;;5099616;28;19916;-82
2022/04/27 08:11:54;;;;;;;;;;;;;;;;;;5099441;28;20407;-82
2022/04/27 08:14:19;;;;;;;;;;;;;;;;;;5097120;28;19922;-82
2022/04/27 08:16:44;;;;;;;;;;;;;;;;;;5097710;28;19923;-82
2022/04/27 08:19:10;;;;;;;;;;;;;;;;;;5102405;28;19959;-84
2022/04/27 08:21:35;;;;;;;;;;;;;;;;;;5100617;28;20374;-82
2022/04/27 08:24:03;;;;;;;;;;;;;;;;;;5103214;28;19920;-84
2022/04/27 08:26:29;;;;;;;;;;;;;;;;;;5104494;28;19924;-83
2022/04/27 08:28:55;;;;;;;;;;;;;;;;;;5103700;28;19920;-81
2022/04/27 08:31:20;;;;;;;;;;;;;;;;;;5102943;28;20401;-82
2022/04/27 08:33:46;;;;;;;;;;;;;;;;;;5094150;28;19917;-81
2022/04/27 08:36:11;;;;;;;;;;;;;;;;;;5081833;28;19986;-82
2022/04/27 08:38:37;;;;;;;;;;;;;;;;;;5082385;28;20332;-82
2022/04/27 08:41:03;;;;;;;;;;;;;;;;;;5102195;28;19995;-82
2022/04/27 08:43:28;;;;;;;;;;;;;;;;;;5100304;28;20038;-82
2022/04/27 08:45:54;;;;;;;;;;;;;;;;;;5101576;28;19955;-81
2022/04/27 08:48:21;;;;;;;;;;;;;;;;;;5103978;28;19916;-81
2022/04/27 08:50:47;;;;;;;;;;;;;;;;;;5104584;28;20463;-82
2022/04/27 08:53:12;;;;;;;;;;;;;;;;;;5104428;28;19916;-82
2022/04/27 08:55:39;;;;;;;;;;;;;;;;;;5111358;28;19964;-81
2022/04/27 08:58:11;;;;;;;;;;;;;;;;;;5111315;28;19984;-82
2022/04/27 09:00:37;;;;;;;;;;;;;;;;;;5106126;28;19923;-81
2022/04/27 09:03:21;;;;;;;;;;;;;;;;;;5090841;28;19912;-81
2022/04/27 09:05:51;;;;;;;;;;;;;;;;;;5085491;28;19921;-82
2022/04/27 09:08:16;;;;;;;;;;;;;;;;;;5085559;28;19930;-81
2022/04/27 09:10:41;;;;;;;;;;;;;;;;;;5078769;28;20010;-81
2022/04/27 09:13:06;;;;;;;;;;;;;;;;;;5079529;28;19916;-81
2022/04/27 09:15:32;;;;;;;;;;;;;;;;;;5078306;28;20341;-81
2022/04/27 09:20:54;;;;;;;;;;;;;;;;;;5105309;28;19924;-82
2022/04/27 09:23:40;;;;;;;;;;;;;;;;;;5097194;28;19916;-80
2022/04/27 09:26:19;;;;;;;;;;;;;;;;;;5059995;28;20007;-79
2022/04/27 09:28:48;;;;;;;;;;;;;;;;;;5085096;28;19951;-79
2022/04/27 09:31:30;;;;;;;;;;;;;;;;;;5105447;28;19923;-80
2022/04/27 09:34:00;;;;;;;;;;;;;;;;;;5103705;28;19919;-81
2022/04/27 09:36:26;;;;;;;;;;;;;;;;;;5081062;28;19979;-81
2022/04/27 09:38:52;;;;;;;;;;;;;;;;;;5096289;28;19924;-81
2022/04/27 09:41:41;;;;;;;;;;;;;;;;;;5087934;28;19916;-81
2022/04/27 09:44:07;;;;;;;;;;;;;;;;;;5101584;28;19920;-81
2022/04/27 09:46:38;;;;;;;;;;;;;;;;;;5102966;28;20001;-80
2022/04/27 09:49:07;;;;;;;;;;;;;;;;;;5099268;28;19916;-79
2022/04/27 09:51:33;;;;;;;;;;;;;;;;;;5100699;28;19916;-78
2022/04/27 09:53:59;;;;;;;;;;;;;;;;;;5101221;28;20301;-82
2022/04/27 09:56:28;;;;;;;;;;;;;;;;;;5099188;28;19918;-78
2022/04/27 09:58:54;;;;;;;;;;;;;;;;;;5095787;28;19927;-79
2022/04/27 10:01:19;;;;;;;;;;;;;;;;;;5098149;28;19952;-79
2022/04/27 10:03:47;;;;;;;;;;;;;;;;;;5095935;28;20353;-76
2022/04/27 10:06:14;;;;;;;;;;;;;;;;;;5094637;28;20350;-76
2022/04/27 10:08:40;;;;;;;;;;;;;;;;;;5093332;28;19923;-77
2022/04/27 10:11:07;;;;;;;;;;;;;;;;;;5093723;28;19923;-77
2022/04/27 10:13:32;;;;;;;;;;;;;;;;;;5096076;28;19916;-77
2022/04/27 10:15:58;;;;;;;;;;;;;;;;;;5095532;28;20474;-77
2022/04/27 10:18:23;;;;;;;;;;;;;;;;;;5093186;28;19920;-78
2022/04/27 10:20:50;;;;;;;;;;;;;;;;;;5095805;28;19926;-79
2022/04/27 10:23:15;;;;;;;;;;;;;;;;;;5097097;28;19927;-79
2022/04/27 10:25:41;;;;;;;;;;;;;;;;;;5096434;28;19920;-78
2022/04/27 10:28:18;;;;;;;;;;;;;;;;;;5098932;28;19957;-78
2022/04/27 10:30:43;;;;;;;;;;;;;;;;;;5092665;28;19916;-77
2022/04/27 10:33:09;;;;;;;;;;;;;;;;;;5093425;28;19923;-76
2022/04/27 10:35:35;;;;;;;;;;;;;;;;;;5073203;28;20343;-77
2022/04/27 10:38:02;;;;;;;;;;;;;;;;;;5074321;28;19924;-77
2022/04/27 10:40:37;;;;;;;;;;;;;;;;;;5094065;28;19917;-77
2022/04/27 10:43:05;;;;;;;;;;;;;;;;;;5090585;28;19916;-77
2022/04/27 10:45:31;;;;;;;;;;;;;;;;;;5074989;28;19921;-77
2022/04/27 10:47:57;;;;;;;;;;;;;;;;;;5059394;28;19916;-76
2022/04/27 10:50:23;;;;;;;;;;;;;;;;;;5094516;28;19916;-77
2022/04/27 10:52:53;;;;;;;;;;;;;;;;;;5095732;28;20014;-77
2022/04/27 10:55:43;;;;;;;;;;;;;;;;;;5092723;28;20321;-77
2022/04/27 10:58:10;;;;;;;;;;;;;;;;;;5093446;28;19928;-76
2022/04/27 11:00:36;;;;;;;;;;;;;;;;;;5091700;28;19932;-76
2022/04/27 11:03:15;;;;;;;;;;;;;;;;;;5092720;28;19927;-75
2022/04/27 11:05:40;;;;;;;;;;;;;;;;;;5091985;28;19916;-74
2022/04/27 11:08:16;;;;;;;;;;;;;;;;;;5084737;28;20297;-74
2022/04/27 11:10:42;;;;;;;;;;;;;;;;;;5073386;28;19924;-74
2022/04/27 11:13:12;;;;;;;;;;;;;;;;;;5077792;28;19917;-74
2022/04/27 11:15:38;;;;;;;;;;;;;;;;;;5086378;28;19959;-74
2022/04/27 11:18:04;;;;;;;;;;;;;;;;;;5089451;28;19963;-73
2022/04/27 11:20:31;;;;;;;;;;;;;;;;;;5096761;28;19969;-74
2022/04/27 11:22:57;;;;;;;;;;;;;;;;;;5096201;28;19916;-74
2022/04/27 11:25:23;;;;;;;;;;;;;;;;;;5095999;28;20281;-74
2022/04/27 11:27:48;;;;;;;;;;;;;;;;;;5096585;28;19969;-74
2022/04/27 11:30:14;;;;;;;;;;;;;;;;;;5097085;28;19928;-74
2022/04/27 11:32:43;;;;;;;;;;;;;;;;;;5094862;28;19955;-74
2022/04/27 11:35:08;;;;;;;;;;;;;;;;;;5078984;28;19939;-74
2022/04/27 11:37:37;;;;;;;;;;;;;;;;;;5096713;28;19916;-74
2022/04/27 11:40:16;;;;;;;;;;;;;;;;;;5078743;28;19920;-74
2022/04/27 11:42:44;;;;;;;;;;;;;;;;;;5083347;28;19916;-74
2022/04/27 11:45:17;;;;;;;;;;;;;;;;;;5096879;28;19961;-74
2022/04/27 11:47:42;;;;;;;;;;;;;;;;;;5096991;28;19927;-74
2022/04/27 11:50:08;;;;;;;;;;;;;;;;;;5095142;28;19916;-74
2022/04/27 11:52:39;;;;;;;;;;;;;;;;;;5096219;28;20011;-74
2022/04/27 11:55:08;;;;;;;;;;;;;;;;;;5096786;28;19916;-74
2022/04/27 11:57:34;;;;;;;;;;;;;;;;;;5095127;28;19928;-75
2022/04/27 11:59:59;;;;;;;;;;;;;;;;;;5096506;28;20370;-75
2022/04/27 12:02:25;;;;;;;;;;;;;;;;;;5096046;28;20006;-75
2022/04/27 12:04:51;;;;;;;;;;;;;;;;;;5096734;28;19935;-75
2022/04/27 12:07:17;;;;;;;;;;;;;;;;;;5096311;28;19927;-75
2022/04/27 12:09:55;;;;;;;;;;;;;;;;;;5096654;28;19916;-75
2022/04/27 12:12:20;;;;;;;;;;;;;;;;;;5096536;28;19916;-75
2022/04/27 12:14:45;;;;;;;;;;;;;;;;;;5095622;28;20457;-75
2022/04/27 12:17:31;;;;;;;;;;;;;;;;;;5095511;28;19921;-75
2022/04/27 12:19:56;;;;;;;;;;;;;;;;;;5095850;28;19923;-75
2022/04/27 12:22:21;;;;;;;;;;;;;;;;;;5096225;28;19916;-75
2022/04/27 12:24:47;;;;;;;;;;;;;;;;;;5095431;28;19923;-75
2022/04/27 12:27:19;;;;;;;;;;;;;;;;;;5092148;28;19927;-74
2022/04/27 12:29:44;;;;;;;;;;;;;;;;;;5095546;28;19919;-75
2022/04/27 12:32:10;;;;;;;;;;;;;;;;;;5073696;28;19922;-76
2022/04/27 12:37:29;;;;;;;;;;;;;;;;;;5075533;28;19916;-76
2022/04/27 12:39:55;;;;;;;;;;;;;;;;;;5074922;28;20333;-75
2022/04/27 12:42:21;;;;;;;;;;;;;;;;;;5075704;28;19916;-77
2022/04/27 12:44:46;;;;;;;;;;;;;;;;;;5084794;28;19962;-75
2022/04/27 12:47:13;;;;;;;;;;;;;;;;;;5094634;28;20354;-77
2022/04/27 12:49:39;;;;;;;;;;;;;;;;;;5091977;28;19939;-76
2022/04/27 12:52:18;;;;;;;;;;;;;;;;;;5075822;28;19916;-77
2022/04/27 12:54:44;;;;;;;;;;;;;;;;;;5076256;28;19971;-76
2022/04/27 12:57:10;;;;;;;;;;;;;;;;;;5090090;28;19927;-77
2022/04/27 12:59:55;;;;;;;;;;;;;;;;;;5095517;28;20353;-76
2022/04/27 13:02:20;;;;;;;;;;;;;;;;;;5093801;28;19955;-76
2022/04/27 13:04:46;;;;;;;;;;;;;;;;;;5093182;28;19978;-76
2022/04/27 13:07:12;;;;;;;;;;;;;;;;;;5094154;28;19924;-76
2022/04/27 13:12:21;;;;;;;;;;;;;;;;;;5095229;28;19920;-76
2022/04/27 13:14:47;;;;;;;;;;;;;;;;;;5094049;28;19961;-76
2022/04/27 13:17:12;;;;;;;;;;;;;;;;;;5094367;28;19916;-76
2022/04/27 13:19:38;;;;;;;;;;;;;;;;;;5094814;28;20385;-76
2022/04/27 13:22:03;;;;;;;;;;;;;;;;;;5095038;28;19955;-76
2022/04/27 13:24:30;;;;;;;;;;;;;;;;;;5094026;28;19963;-75
2022/04/27 13:26:55;;;;;;;;;;;;;;;;;;5093525;28;19924;-76
2022/04/27 13:29:20;;;;;;;;;;;;;;;;;;5094011;28;19927;-76
2022/04/27 13:31:45;;;;;;;;;;;;;;;;;;5094845;28;19960;-76
2022/04/27 13:34:11;;;;;;;;;;;;;;;;;;5094155;28;19920;-76
2022/04/27 13:36:36;;;;;;;;;;;;;;;;;;5093963;28;19920;-76
2022/04/27 13:39:02;;;;;;;;;;;;;;;;;;5095103;28;19923;-76
2022/04/27 13:41:27;;;;;;;;;;;;;;;;;;5094918;28;19923;-76
2022/04/27 13:43:55;;;;;;;;;;;;;;;;;;5094011;28;19916;-76
2022/04/27 13:46:20;;;;;;;;;;;;;;;;;;5093593;28;19924;-76
2022/04/27 13:48:45;;;;;;;;;;;;;;;;;;5094676;28;19915;-76
2022/04/27 13:51:16;;;;;;;;;;;;;;;;;;5094660;28;19919;-76
2022/04/27 13:54:02;;;;;;;;;;;;;;;;;;5094908;28;20000;-76
2022/04/27 13:56:28;;;;;;;;;;;;;;;;;;5094417;28;19986;-76
2022/04/27 13:58:53;;;;;;;;;;;;;;;;;;5094401;28;19920;-76
2022/04/27 14:01:18;;;;;;;;;;;;;;;;;;5094596;28;19916;-76
2022/04/27 14:03:47;;;;;;;;;;;;;;;;;;5094405;28;20689;-76
2022/04/27 14:06:12;;;;;;;;;;;;;;;;;;5094381;28;20018;-76
2022/04/27 14:08:38;;;;;;;;;;;;;;;;;;5094249;28;19954;-76
2022/04/27 14:11:03;;;;;;;;;;;;;;;;;;5094494;28;20377;-76
2022/04/27 14:13:28;;;;;;;;;;;;;;;;;;5093174;28;20392;-76
2022/04/27 14:18:10;;;;;;;;;;;;;;;;;;5093139;28;19915;-76
2022/04/27 14:18:53;;;;;;;;;;;;;;;;;;5094187;28;19920;-76
2022/04/27 14:21:18;;;;;;;;;;;;;;;;;;5094325;28;19931;-76
2022/04/27 14:23:43;;;;;;;;;;;;;;;;;;5094197;28;20298;-76
2022/04/27 14:26:09;;;;;;;;;;;;;;;;;;5094145;28;19973;-76
2022/04/27 14:28:35;;;;;;;;;;;;;;;;;;5094077;28;19969;-76
2022/04/27 14:31:01;;;;;;;;;;;;;;;;;;5093139;28;20405;-76
2022/04/27 14:33:27;;;;;;;;;;;;;;;;;;5094342;28;19982;-75
2022/04/27 14:35:52;;;;;;;;;;;;;;;;;;5094068;28;20381;-76
2022/04/27 14:38:17;;;;;;;;;;;;;;;;;;5094159;28;20273;-76
2022/04/27 14:40:45;;;;;;;;;;;;;;;;;;5094018;28;19920;-76
2022/04/27 14:43:11;;;;;;;;;;;;;;;;;;5092542;28;19923;-76
2022/04/27 14:45:36;;;;;;;;;;;;;;;;;;5093913;28;19916;-76
2022/04/27 14:48:01;;;;;;;;;;;;;;;;;;5093555;28;19923;-76
2022/04/27 14:50:27;;;;;;;;;;;;;;;;;;5093783;28;20276;-76
2022/04/27 14:52:52;;;;;;;;;;;;;;;;;;5093634;28;19967;-76
2022/04/27 14:55:19;;;;;;;;;;;;;;;;;;5093844;28;19923;-76
2022/04/27 14:57:45;;;;;;;;;;;;;;;;;;5092504;28;20011;-76
2022/04/27 15:00:11;;;;;;;;;;;;;;;;;;5093818;28;19916;-76
2022/04/27 15:02:36;;;;;;;;;;;;;;;;;;5093793;28;20285;-76
2022/04/27 15:05:02;;;;;;;;;;;;;;;;;;5093643;28;19916;-76
2022/04/27 15:07:28;;;;;;;;;;;;;;;;;;5093437;28;19974;-76
2022/04/27 15:09:54;;;;;;;;;;;;;;;;;;5093711;28;20370;-76
2022/04/27 15:12:19;;;;;;;;;;;;;;;;;;5092314;28;19923;-75
2022/04/27 15:14:44;;;;;;;;;;;;;;;;;;5092276;28;20337;-76
2022/04/27 15:17:09;;;;;;;;;;;;;;;;;;5093489;28;19916;-76
2022/04/27 15:19:35;;;;;;;;;;;;;;;;;;5092748;28;19917;-76
2022/04/27 15:24:45;;;;;;;;;;;;;;;;;;5093505;28;19916;-76
2022/04/27 15:27:13;;;;;;;;;;;;;;;;;;5093284;28;19927;-76
2022/04/27 15:29:39;;;;;;;;;;;;;;;;;;5093472;28;19944;-76
2022/04/27 15:32:06;;;;;;;;;;;;;;;;;;5092200;28;19978;-76
2022/04/27 15:34:31;;;;;;;;;;;;;;;;;;5093284;28;19920;-76
2022/04/27 15:36:57;;;;;;;;;;;;;;;;;;5093371;28;19923;-76
2022/04/27 15:39:22;;;;;;;;;;;;;;;;;;5093379;28;19916;-75
2022/04/27 15:41:47;;;;;;;;;;;;;;;;;;5093558;28;19989;-75
2022/04/27 15:44:13;;;;;;;;;;;;;;;;;;5093302;28;19916;-76
2022/04/27 15:46:42;;;;;;;;;;;;;;;;;;5093246;28;19920;-76
2022/04/27 15:49:07;;;;;;;;;;;;;;;;;;5091962;28;19916;-76
2022/04/27 15:51:34;;;;;;;;;;;;;;;;;;5093380;28;20007;-76
2022/04/27 15:54:00;;;;;;;;;;;;;;;;;;5093247;28;19970;-76
2022/04/27 15:56:25;;;;;;;;;;;;;;;;;;5093368;28;19916;-76
2022/04/27 15:58:50;;;;;;;;;;;;;;;;;;5091740;28;19966;-76
2022/04/27 16:01:16;;;;;;;;;;;;;;;;;;5095659;28;20325;-76
2022/04/27 16:03:41;;;;;;;;;;;;;;;;;;5095545;28;19970;-75
2022/04/27 16:06:07;;;;;;;;;;;;;;;;;;5095790;28;19920;-77
2022/04/27 16:08:32;;;;;;;;;;;;;;;;;;5094013;28;19922;-75
2022/04/27 16:10:57;;;;;;;;;;;;;;;;;;5096499;28;19916;-75
2022/04/27 16:13:23;;;;;;;;;;;;;;;;;;5096971;28;20372;-76
2022/04/27 16:15:48;;;;;;;;;;;;;;;;;;5096046;28;19969;-76
2022/04/27 16:18:14;;;;;;;;;;;;;;;;;;5096569;28;19916;-75
2022/04/27 16:20:40;;;;;;;;;;;;;;;;;;5096049;28;19916;-75
2022/04/27 16:23:08;;;;;;;;;;;;;;;;;;5096004;28;19916;-76
2022/04/27 16:25:37;;;;;;;;;;;;;;;;;;5096664;28;19923;-76
2022/04/27 16:28:03;;;;;;;;;;;;;;;;;;5096544;28;20019;-76
2022/04/27 16:30:28;;;;;;;;;;;;;;;;;;5096447;28;19977;-77
2022/04/27 16:32:54;;;;;;;;;;;;;;;;;;5114053;28;19920;-77
2022/04/27 16:35:20;;;;;;;;;;;;;;;;;;5116858;28;19916;-77
2022/04/27 16:37:45;;;;;;;;;;;;;;;;;;5115090;28;19915;-77
2022/04/27 16:40:11;;;;;;;;;;;;;;;;;;5117899;28;19923;-77
2022/04/27 16:42:37;;;;;;;;;;;;;;;;;;5115040;28;19938;-77
2022/04/27 16:45:03;;;;;;;;;;;;;;;;;;5115910;28;19916;-76
2022/04/27 16:47:28;;;;;;;;;;;;;;;;;;5116259;28;19920;-77
2022/04/27 16:49:54;;;;;;;;;;;;;;;;;;5116411;27;19923;-76
2022/04/27 16:52:20;;;;;;;;;;;;;;;;;;5105909;28;19961;-76
2022/04/27 16:54:47;;;;;;;;;;;;;;;;;;5095837;28;20266;-75
2022/04/27 16:57:12;;;;;;;;;;;;;;;;;;5095536;28;19999;-76
2022/04/27 16:59:38;;;;;;;;;;;;;;;;;;5095747;28;20434;-75
2022/04/27 17:02:04;;;;;;;;;;;;;;;;;;5094917;28;20279;-77
2022/04/27 17:04:30;;;;;;;;;;;;;;;;;;5097630;28;19924;-77
2022/04/27 17:06:55;;;;;;;;;;;;;;;;;;5090484;28;20461;-77
2022/04/27 17:09:20;;;;;;;;;;;;;;;;;;5075585;28;19917;-77
2022/04/27 17:11:46;;;;;;;;;;;;;;;;;;5074317;28;19922;-77
2022/04/27 17:14:11;;;;;;;;;;;;;;;;;;5075259;28;20394;-73
2022/04/27 17:16:37;;;;;;;;;;;;;;;;;;5075814;28;20056;-77
2022/04/27 17:19:03;;;;;;;;;;;;;;;;;;5075215;28;19917;-77
2022/04/27 17:21:30;;;;;;;;;;;;;;;;;;5075138;28;19916;-77